Time;durP1;ratioP1;P1;durP2;ratioP2;P2;SDS_P1;SDS_P2;PMS_P1;PMS_P2;Temp;Humidity;BMP_temperature;BMP_pressure;BME280_temperature;BME280_humidity;BME280_pressure;Samples;Min_cycle;Max_cycle;Signal;HPM_P1;HPM_P2
2023/10/25 00:00:07;;;;;;;4.23;2.60;;;11.00;99.90;;;;;;5058142;28;20188;-40
2023/10/25 00:02:32;;;;;;;2.97;2.73;;;11.00;99.90;;;;;;5056987;28;20233;-38
2023/10/25 00:04:58;;;;;;;2.97;2.67;;;11.00;99.90;;;;;;5058289;28;20457;-39
2023/10/25 00:07:24;;;;;;;2.73;2.53;;;11.00;99.90;;;;;;5057469;28;20221;-38
2023/10/25 00:09:49;;;;;;;2.80;2.50;;;11.00;99.90;;;;;;5057783;28;20259;-38
2023/10/25 00:12:15;;;;;;;3.17;2.87;;;10.90;99.90;;;;;;5057895;28;20213;-41
2023/10/25 00:14:41;;;;;;;3.50;3.20;;;10.90;99.90;;;;;;5057990;28;20509;-40
2023/10/25 00:17:07;;;;;;;3.00;2.70;;;10.90;99.90;;;;;;5057830;28;20205;-40
2023/10/25 00:19:33;;;;;;;3.73;3.27;;;10.90;99.90;;;;;;5057253;28;20510;-39
2023/10/25 00:21:58;;;;;;;2.60;2.40;;;10.90;99.90;;;;;;5057568;28;20440;-39
2023/10/25 00:24:24;;;;;;;3.20;2.90;;;10.90;99.90;;;;;;5058100;28;20447;-38
2023/10/25 00:26:50;;;;;;;3.33;3.00;;;10.90;99.90;;;;;;5057091;28;20235;-38
2023/10/25 00:29:16;;;;;;;3.30;3.00;;;10.80;99.90;;;;;;5057005;28;20182;-40
2023/10/25 00:31:42;;;;;;;4.63;3.37;;;10.80;99.90;;;;;;5057503;28;20608;-40
2023/10/25 00:34:08;;;;;;;3.50;3.20;;;10.80;99.90;;;;;;5057663;28;20182;-39
2023/10/25 00:36:34;;;;;;;3.40;3.10;;;10.80;99.90;;;;;;5057739;28;20424;-43
2023/10/25 00:38:59;;;;;;;3.70;3.40;;;10.80;99.90;;;;;;5057347;28;20186;-39
2023/10/25 00:41:25;;;;;;;3.37;3.07;;;10.80;99.90;;;;;;5057443;28;20197;-39
2023/10/25 00:43:50;;;;;;;3.23;2.93;;;10.80;99.90;;;;;;5056549;28;20221;-41
2023/10/25 00:46:21;;;;;;;3.87;3.57;;;10.80;99.90;;;;;;5057019;28;20619;-40
2023/10/25 00:48:48;;;;;;;3.30;3.10;;;10.80;99.90;;;;;;5037023;28;20209;-40
2023/10/25 00:51:15;;;;;;;4.07;3.60;;;10.80;99.90;;;;;;5056401;28;20434;-39
2023/10/25 00:53:45;;;;;;;3.50;3.20;;;10.80;99.90;;;;;;5040234;28;20450;-41
2023/10/25 00:56:11;;;;;;;3.70;3.40;;;10.70;99.90;;;;;;5039308;28;20428;-39
2023/10/25 00:58:38;;;;;;;5.03;3.90;;;10.80;99.90;;;;;;5056779;28;20454;-39
2023/10/25 01:01:05;;;;;;;3.30;3.10;;;10.70;99.90;;;;;;5039647;28;20493;-39
2023/10/25 01:03:31;;;;;;;4.00;3.70;;;10.70;99.90;;;;;;5038927;28;20692;-40
2023/10/25 01:05:56;;;;;;;4.50;4.10;;;10.70;99.90;;;;;;5056551;28;20418;-37
2023/10/25 01:08:22;;;;;;;3.80;3.50;;;10.70;99.90;;;;;;5056548;28;20788;-39
2023/10/25 01:10:52;;;;;;;3.13;2.83;;;10.70;99.90;;;;;;5055799;28;20185;-37
2023/10/25 01:13:19;;;;;;;5.20;3.33;;;10.70;99.90;;;;;;5055357;28;20494;-38
2023/10/25 01:15:45;;;;;;;3.60;3.30;;;10.70;99.90;;;;;;5037869;28;20874;-41
2023/10/25 01:18:11;;;;;;;2.97;2.77;;;10.70;99.90;;;;;;5055897;28;20740;-39
2023/10/25 01:20:36;;;;;;;3.27;3.00;;;10.70;99.90;;;;;;5072984;28;20439;-40
2023/10/25 01:23:02;;;;;;;2.73;2.53;;;10.70;99.90;;;;;;5079559;28;20177;-40
2023/10/25 01:25:28;;;;;;;2.73;2.53;;;10.70;99.90;;;;;;5079742;28;20193;-41
2023/10/25 01:27:54;;;;;;;3.70;3.40;;;10.70;99.90;;;;;;5080774;28;20466;-38
2023/10/25 01:30:20;;;;;;;3.43;3.13;;;10.70;99.90;;;;;;5080771;28;20563;-39
2023/10/25 01:32:45;;;;;;;3.33;3.13;;;10.70;99.90;;;;;;5080756;28;20176;-39
2023/10/25 01:35:11;;;;;;;3.30;3.00;;;10.60;99.90;;;;;;5081070;28;20431;-39
2023/10/25 01:37:37;;;;;;;3.40;3.10;;;10.70;99.90;;;;;;5080493;28;20196;-40
2023/10/25 01:40:04;;;;;;;2.90;2.70;;;10.60;99.90;;;;;;5080872;28;20185;-40
2023/10/25 01:42:30;;;;;;;2.77;2.57;;;10.60;99.90;;;;;;5080965;28;20181;-41
2023/10/25 01:44:55;;;;;;;3.33;3.03;;;10.60;99.90;;;;;;5079716;28;20407;-42
2023/10/25 01:47:21;;;;;;;3.20;2.90;;;10.60;99.90;;;;;;5079372;28;20222;-39
2023/10/25 01:49:47;;;;;;;3.07;2.80;;;10.50;99.90;;;;;;5080427;28;20181;-40
2023/10/25 01:52:12;;;;;;;3.40;2.70;;;10.50;99.90;;;;;;5080003;28;20173;-40
2023/10/25 01:54:40;;;;;;;2.93;2.60;;;10.50;99.90;;;;;;5080255;28;20204;-42
2023/10/25 01:57:06;;;;;;;2.60;2.40;;;10.50;99.90;;;;;;5080219;28;20173;-41
2023/10/25 01:59:31;;;;;;;3.10;2.70;;;10.50;99.90;;;;;;5080091;28;20419;-40
2023/10/25 02:01:57;;;;;;;3.00;2.73;;;10.50;99.90;;;;;;5080521;28;20431;-39
2023/10/25 02:04:23;;;;;;;2.77;2.53;;;10.40;99.90;;;;;;5079941;28;20195;-40
2023/10/25 02:06:51;;;;;;;2.67;2.47;;;10.50;99.90;;;;;;5078332;28;20220;-39
2023/10/25 02:09:17;;;;;;;2.50;2.30;;;10.50;99.90;;;;;;5080044;28;20201;-42
2023/10/25 02:11:43;;;;;;;7.37;2.80;;;10.40;99.90;;;;;;5079060;28;20524;-42
2023/10/25 02:14:09;;;;;;;2.70;2.50;;;10.50;99.90;;;;;;5079448;28;20868;-40
2023/10/25 02:16:34;;;;;;;2.77;2.57;;;10.40;99.90;;;;;;5078329;28;20262;-40
2023/10/25 02:19:00;;;;;;;2.90;2.53;;;10.40;99.90;;;;;;5078524;28;20267;-42
2023/10/25 02:21:26;;;;;;;3.17;2.87;;;10.50;99.90;;;;;;5079234;28;20189;-40
2023/10/25 02:23:53;;;;;;;2.77;2.57;;;10.40;99.90;;;;;;5078891;28;20181;-42
2023/10/25 02:26:19;;;;;;;3.13;2.83;;;10.50;99.90;;;;;;5078080;28;20244;-39
2023/10/25 02:28:44;;;;;;;3.20;2.90;;;10.50;99.90;;;;;;5079429;28;20466;-38
2023/10/25 02:31:10;;;;;;;3.30;3.00;;;10.50;99.90;;;;;;5078819;28;20497;-41
2023/10/25 02:33:36;;;;;;;3.33;3.03;;;10.50;99.90;;;;;;5079328;28;20711;-40
2023/10/25 02:36:01;;;;;;;2.93;2.73;;;10.50;99.90;;;;;;5079224;28;20173;-40
2023/10/25 02:38:27;;;;;;;2.60;2.40;;;10.50;99.90;;;;;;5079987;28;21010;-39
2023/10/25 02:40:52;;;;;;;2.60;2.40;;;10.40;99.90;;;;;;5079605;28;20211;-40
2023/10/25 02:43:18;;;;;;;2.70;2.50;;;10.40;99.90;;;;;;5079558;28;20185;-40
2023/10/25 02:45:44;;;;;;;2.57;2.37;;;10.40;99.90;;;;;;5079706;28;20193;-39
2023/10/25 02:48:13;;;;;;;2.67;2.37;;;10.40;99.90;;;;;;5079553;28;20185;-39
2023/10/25 02:50:39;;;;;;;2.97;2.77;;;10.40;99.90;;;;;;5078692;28;20215;-40
2023/10/25 02:53:05;;;;;;;3.23;2.93;;;10.40;99.90;;;;;;5079064;28;20514;-39
2023/10/25 02:55:32;;;;;;;3.43;3.13;;;10.30;99.90;;;;;;5079466;28;20550;-40
2023/10/25 02:57:58;;;;;;;3.10;2.80;;;10.40;99.90;;;;;;5078929;28;20452;-40
2023/10/25 03:00:24;;;;;;;2.83;2.33;;;10.30;99.90;;;;;;5078579;28;20434;-39
2023/10/25 03:02:49;;;;;;;3.27;2.50;;;10.30;99.90;;;;;;5079470;28;20455;-40
2023/10/25 03:05:15;;;;;;;3.60;3.00;;;10.30;99.90;;;;;;5078569;28;20195;-39
2023/10/25 03:07:41;;;;;;;2.30;2.10;;;10.30;99.90;;;;;;5079118;28;20308;-40
2023/10/25 03:10:07;;;;;;;2.77;2.53;;;10.30;99.90;;;;;;5078021;28;20558;-39
2023/10/25 03:12:33;;;;;;;4.00;2.50;;;10.30;99.90;;;;;;5078512;28;20188;-40
2023/10/25 03:14:59;;;;;;;3.00;2.70;;;10.30;99.90;;;;;;5078348;28;20415;-40
2023/10/25 03:17:27;;;;;;;2.60;2.40;;;10.30;99.90;;;;;;5078901;28;20261;-39
2023/10/25 03:19:53;;;;;;;2.63;2.43;;;10.30;99.90;;;;;;5078719;28;20462;-40
2023/10/25 03:22:18;;;;;;;2.63;2.43;;;10.20;99.90;;;;;;5079187;28;20825;-40
2023/10/25 03:24:44;;;;;;;3.30;3.00;;;10.20;99.90;;;;;;5078443;28;20197;-40
2023/10/25 03:27:10;;;;;;;2.73;2.53;;;10.20;99.90;;;;;;5079214;28;20240;-40
2023/10/25 03:29:39;;;;;;;2.83;2.63;;;10.20;99.90;;;;;;5078970;28;20184;-39
2023/10/25 03:32:05;;;;;;;2.70;2.50;;;10.20;99.90;;;;;;5078575;28;20185;-41
2023/10/25 03:34:30;;;;;;;3.20;3.00;;;10.20;99.90;;;;;;5078564;28;20457;-39
2023/10/25 03:36:56;;;;;;;3.37;3.07;;;10.20;99.90;;;;;;5079866;28;20500;-40
2023/10/25 03:39:22;;;;;;;3.80;3.50;;;10.10;99.90;;;;;;5079293;28;20177;-40
2023/10/25 03:41:47;;;;;;;4.17;3.87;;;10.10;99.90;;;;;;5078157;28;20281;-40
2023/10/25 03:44:13;;;;;;;4.77;4.37;;;10.10;99.90;;;;;;5078687;28;20466;-40
2023/10/25 03:46:39;;;;;;;5.93;5.37;;;10.00;99.90;;;;;;5078201;28;20547;-39
2023/10/25 03:49:04;;;;;;;4.37;4.07;;;10.00;99.90;;;;;;5077487;28;20202;-39
2023/10/25 03:51:31;;;;;;;5.20;4.80;;;10.00;99.90;;;;;;5076887;28;20440;-41
2023/10/25 03:53:56;;;;;;;6.60;5.53;;;10.00;99.90;;;;;;5078094;28;20426;-40
2023/10/25 03:56:22;;;;;;;6.73;5.90;;;9.90;99.90;;;;;;5077303;28;20431;-39
2023/10/25 03:58:48;;;;;;;7.40;5.73;;;9.90;99.90;;;;;;5077622;28;20575;-40
2023/10/25 04:01:14;;;;;;;5.27;4.80;;;9.90;99.90;;;;;;5076515;28;20479;-41
2023/10/25 04:03:39;;;;;;;3.90;3.60;;;9.90;99.90;;;;;;5076207;28;20189;-39
2023/10/25 04:06:07;;;;;;;4.33;3.93;;;9.90;99.90;;;;;;5076562;28;20199;-39
2023/10/25 04:08:33;;;;;;;4.43;4.03;;;9.90;99.90;;;;;;5077629;28;20188;-38
2023/10/25 04:10:58;;;;;;;4.37;3.97;;;9.90;99.90;;;;;;5076437;28;20428;-41
2023/10/25 04:13:25;;;;;;;3.57;3.27;;;9.90;99.90;;;;;;5075769;28;20185;-40
2023/10/25 04:15:58;;;;;;;5.93;3.90;;;9.90;99.90;;;;;;5076407;28;20489;-40
2023/10/25 04:18:25;;;;;;;4.10;3.70;;;9.90;99.90;;;;;;5075819;28;20471;-38
2023/10/25 04:20:52;;;;;;;3.60;3.30;;;9.90;99.90;;;;;;5076203;28;20829;-40
2023/10/25 04:23:18;;;;;;;4.03;3.73;;;9.80;99.90;;;;;;5076598;28;20427;-41
2023/10/25 04:25:44;;;;;;;4.47;4.00;;;9.90;99.90;;;;;;5075182;28;20512;-40
2023/10/25 04:28:10;;;;;;;4.90;4.50;;;9.80;99.90;;;;;;5076571;28;20471;-38
2023/10/25 04:30:35;;;;;;;4.93;4.53;;;9.80;99.90;;;;;;5076521;28;20822;-40
2023/10/25 04:33:02;;;;;;;5.20;4.80;;;9.80;99.90;;;;;;5076884;28;20203;-39
2023/10/25 04:35:28;;;;;;;5.00;4.60;;;9.70;99.90;;;;;;5076113;28;20186;-40
2023/10/25 04:37:55;;;;;;;4.77;4.37;;;9.70;99.90;;;;;;5075778;28;20435;-40
2023/10/25 04:40:21;;;;;;;4.60;4.20;;;9.70;99.90;;;;;;5075962;28;20427;-39
2023/10/25 04:42:50;;;;;;;4.43;4.07;;;9.70;99.90;;;;;;5075814;28;20721;-43
2023/10/25 04:45:16;;;;;;;4.20;3.90;;;9.60;99.90;;;;;;5076039;28;20506;-40
2023/10/25 04:47:41;;;;;;;4.57;4.17;;;9.70;99.90;;;;;;5075769;28;20861;-41
2023/10/25 04:50:07;;;;;;;3.73;3.43;;;9.60;99.90;;;;;;5074595;28;20472;-40
2023/10/25 04:52:33;;;;;;;3.80;3.50;;;9.60;99.90;;;;;;5074573;28;20643;-39
2023/10/25 04:54:58;;;;;;;4.33;3.70;;;9.60;99.90;;;;;;5075531;28;20462;-39
2023/10/25 04:57:24;;;;;;;3.80;3.50;;;9.50;99.90;;;;;;5076915;28;20200;-39
2023/10/25 04:59:50;;;;;;;4.10;3.80;;;9.50;99.90;;;;;;5075186;28;20493;-38
2023/10/25 05:02:16;;;;;;;4.63;4.23;;;9.50;99.90;;;;;;5073800;28;20193;-40
2023/10/25 05:04:42;;;;;;;4.97;4.57;;;9.50;99.90;;;;;;5074878;28;20435;-39
2023/10/25 05:07:08;;;;;;;5.30;4.90;;;9.50;99.90;;;;;;5074198;28;20232;-39
2023/10/25 05:09:34;;;;;;;6.40;5.80;;;9.50;99.90;;;;;;5073528;28;20185;-40
2023/10/25 05:12:06;;;;;;;6.13;5.63;;;9.50;99.90;;;;;;5062235;28;20431;-39
2023/10/25 05:14:33;;;;;;;5.87;5.30;;;9.50;99.90;;;;;;5070654;28;20423;-39
2023/10/25 05:17:00;;;;;;;5.40;5.00;;;9.60;99.90;;;;;;5055166;28;20813;-39
2023/10/25 05:19:26;;;;;;;5.50;5.00;;;9.60;99.90;;;;;;5059111;28;21028;-45
2023/10/25 05:21:53;;;;;;;7.27;6.63;;;9.60;99.90;;;;;;5051291;28;20506;-39
2023/10/25 05:24:19;;;;;;;5.93;5.43;;;9.60;99.90;;;;;;5032978;28;20416;-39
2023/10/25 05:26:45;;;;;;;5.90;5.37;;;9.60;99.90;;;;;;5015572;28;20476;-39
2023/10/25 05:29:11;;;;;;;6.00;5.50;;;9.70;99.90;;;;;;5049594;28;20197;-40
2023/10/25 05:31:41;;;;;;;5.30;4.80;;;9.70;99.90;;;;;;5050486;28;20520;-40
2023/10/25 05:34:07;;;;;;;5.47;4.97;;;9.70;99.90;;;;;;5052697;28;20427;-42
2023/10/25 05:36:33;;;;;;;5.17;4.67;;;9.70;99.90;;;;;;5050697;28;20484;-39
2023/10/25 05:39:00;;;;;;;5.17;4.77;;;9.70;99.90;;;;;;5053190;28;20424;-39
2023/10/25 05:41:28;;;;;;;6.10;5.50;;;9.70;99.90;;;;;;5051731;28;20432;-39
2023/10/25 05:44:17;;;;;;;5.33;4.90;;;9.70;99.90;;;;;;5034697;28;21121;-40
2023/10/25 05:46:42;;;;;;;5.00;4.60;;;9.80;99.90;;;;;;5041033;28;20900;-41
2023/10/25 05:49:09;;;;;;;4.83;4.43;;;9.80;99.90;;;;;;5051127;28;20440;-38
2023/10/25 05:51:35;;;;;;;5.43;4.93;;;9.80;99.90;;;;;;5033195;28;20268;-40
2023/10/25 05:54:00;;;;;;;5.17;4.77;;;9.80;99.90;;;;;;5051983;28;20821;-40
2023/10/25 05:56:26;;;;;;;5.00;4.60;;;9.80;99.90;;;;;;5051480;28;20428;-40
2023/10/25 05:58:54;;;;;;;5.53;5.13;;;9.80;99.90;;;;;;5052221;28;20542;-37
2023/10/25 06:01:51;;;;;;;5.80;5.30;;;9.80;99.90;;;;;;5050702;28;20498;-40
2023/10/25 06:04:19;;;;;;;5.13;4.73;;;9.80;99.90;;;;;;5048023;28;20451;-40
2023/10/25 06:06:46;;;;;;;5.63;5.13;;;9.80;99.90;;;;;;5053719;28;20468;-40
2023/10/25 06:09:13;;;;;;;5.50;5.00;;;9.80;99.90;;;;;;5055628;28;20451;-53
2023/10/25 06:11:39;;;;;;;6.00;5.40;;;9.80;99.90;;;;;;5055646;28;20405;-39
2023/10/25 06:14:08;;;;;;;4.70;4.20;;;9.80;99.90;;;;;;5054938;28;20527;-39
2023/10/25 06:16:34;;;;;;;5.40;4.90;;;9.80;99.90;;;;;;5054143;28;20543;-42
2023/10/25 06:19:00;;;;;;;5.40;4.90;;;9.90;99.90;;;;;;5058816;28;20581;-39
2023/10/25 06:21:26;;;;;;;5.57;5.07;;;9.90;99.90;;;;;;5074964;28;20227;-38
2023/10/25 06:23:52;;;;;;;4.83;4.33;;;9.90;99.90;;;;;;5072755;28;20766;-38
2023/10/25 06:26:18;;;;;;;4.67;4.27;;;10.00;99.90;;;;;;5072671;28;20228;-39
2023/10/25 06:28:44;;;;;;;4.60;4.20;;;10.10;99.90;;;;;;5074594;28;20177;-38
2023/10/25 06:31:11;;;;;;;4.70;4.30;;;10.10;99.90;;;;;;5078134;28;20716;-38
2023/10/25 06:33:37;;;;;;;5.40;4.90;;;10.20;99.90;;;;;;5074647;28;20438;-40
2023/10/25 06:36:03;;;;;;;5.50;4.40;;;10.30;99.90;;;;;;5077035;28;20403;-39
2023/10/25 06:38:29;;;;;;;4.50;4.10;;;10.50;99.90;;;;;;5066319;28;20485;-42
2023/10/25 06:40:57;;;;;;;4.47;4.07;;;10.80;99.90;;;;;;5075764;28;20442;-37
2023/10/25 06:43:23;;;;;;;3.67;3.37;;;11.10;99.90;;;;;;5074465;28;20474;-39
2023/10/25 06:45:49;;;;;;;3.70;3.40;;;11.30;99.90;;;;;;5075511;28;20419;-40
2023/10/25 06:48:15;;;;;;;4.57;4.03;;;11.40;43.60;;;;;;5074894;28;20485;-39
2023/10/25 06:50:44;;;;;;;3.27;3.07;;;11.50;7.50;;;;;;5074797;28;20901;-39
2023/10/25 06:53:10;;;;;;;3.67;3.37;;;11.80;1.00;;;;;;5057349;28;20242;-39
2023/10/25 06:55:35;;;;;;;4.57;4.17;;;12.20;1.00;;;;;;5075540;28;20426;-41
2023/10/25 06:58:02;;;;;;;3.80;3.40;;;12.60;1.00;;;;;;5056856;28;20442;-41
2023/10/25 07:00:28;;;;;;;4.00;3.60;;;13.00;99.90;;;;;;5076607;28;20480;-38
2023/10/25 07:02:56;;;;;;;4.10;3.40;;;13.40;99.90;;;;;;5075404;28;20465;-39
2023/10/25 07:05:23;;;;;;;4.57;4.17;;;13.90;1.00;;;;;;5076838;28;20189;-39
2023/10/25 07:07:50;;;;;;;4.10;3.80;;;14.30;99.90;;;;;;5076753;28;20482;-39
2023/10/25 07:10:17;;;;;;;4.50;4.10;;;14.70;1.00;;;;;;5077226;28;20442;-39
2023/10/25 07:12:42;;;;;;;8.90;1.60;;;15.20;1.00;;;;;;5075877;28;20703;-39
2023/10/25 07:15:10;;;;;;;8.30;2.00;;;16.50;99.90;;;;;;5076680;28;20410;-39
2023/10/25 07:17:37;;;;;;;10.13;2.20;;;17.50;1.00;;;;;;5077167;28;20339;-38
2023/10/25 07:20:06;;;;;;;6.37;2.53;;;18.30;1.00;;;;;;5061248;28;20503;-39
2023/10/25 07:22:32;;;;;;;4.10;3.33;;;18.70;99.90;;;;;;5054243;28;20758;-39
2023/10/25 07:24:58;;;;;;;3.40;3.10;;;18.80;1.00;;;;;;5054764;28;20511;-40
2023/10/25 07:27:23;;;;;;;3.87;3.17;;;18.90;78.70;;;;;;5053190;28;20232;-38
2023/10/25 07:29:50;;;;;;;3.50;3.07;;;19.00;1.00;;;;;;5034380;28;20375;-42
2023/10/25 07:32:16;;;;;;;3.80;3.40;;;19.30;1.00;;;;;;5020802;28;20190;-40
2023/10/25 07:34:42;;;;;;;3.30;3.00;;;19.40;99.90;;;;;;5021268;28;20728;-41
2023/10/25 07:37:08;;;;;;;3.63;3.23;;;19.70;99.90;;;;;;5021038;28;20759;-42
2023/10/25 07:39:35;;;;;;;3.50;3.17;;;20.00;99.90;;;;;;5036179;28;20471;-39
2023/10/25 07:42:03;;;;;;;3.40;3.10;;;20.20;99.90;;;;;;5055224;28;20197;-40
2023/10/25 07:44:29;;;;;;;3.27;2.93;;;20.10;59.20;;;;;;5038238;28;20718;-40
2023/10/25 07:46:55;;;;;;;4.80;3.33;;;19.90;44.50;;;;;;5038975;28;20472;-41
2023/10/25 07:49:24;;;;;;;2.90;2.70;;;19.90;35.70;;;;;;5020935;28;20452;-39
2023/10/25 07:51:49;;;;;;;3.47;3.17;;;19.80;37.00;;;;;;5056454;28;20186;-40
2023/10/25 07:54:15;;;;;;;3.03;2.70;;;19.30;31.60;;;;;;5055248;28;20681;-41
2023/10/25 07:56:41;;;;;;;3.20;2.90;;;18.60;55.10;;;;;;5038066;28;20237;-42
2023/10/25 07:59:09;;;;;;;3.07;2.73;;;18.00;99.90;;;;;;5057270;28;20474;-44
2023/10/25 08:01:34;;;;;;;3.17;2.87;;;17.50;99.90;;;;;;5023175;28;20456;-42
2023/10/25 08:04:01;;;;;;;3.77;3.47;;;17.40;99.90;;;;;;5054616;28;20494;-41
2023/10/25 08:06:26;;;;;;;3.27;2.97;;;18.00;99.90;;;;;;5019676;28;20248;-38
2023/10/25 08:08:53;;;;;;;4.00;3.60;;;19.00;99.90;;;;;;5020280;28;20872;-40
2023/10/25 08:11:19;;;;;;;3.37;3.07;;;19.70;99.90;;;;;;5056275;28;20185;-38
2023/10/25 08:13:44;;;;;;;3.40;3.10;;;20.00;49.30;;;;;;5056104;28;20787;-40
2023/10/25 08:16:10;;;;;;;3.40;3.10;;;19.80;28.80;;;;;;5055574;28;20277;-41
2023/10/25 08:18:36;;;;;;;3.00;2.60;;;19.50;22.60;;;;;;5056862;28;20638;-38
2023/10/25 08:21:02;;;;;;;3.20;3.00;;;19.20;34.30;;;;;;5072970;28;20502;-38
2023/10/25 08:23:28;;;;;;;3.77;3.43;;;18.80;50.20;;;;;;5075927;28;20216;-40
2023/10/25 08:25:58;;;;;;;4.03;3.70;;;18.50;75.50;;;;;;5074770;28;20860;-40
2023/10/25 08:28:24;;;;;;;3.90;3.53;;;18.10;99.90;;;;;;5072132;28;20538;-39
2023/10/25 08:30:49;;;;;;;4.60;3.20;;;17.80;99.90;;;;;;5073991;28;20820;-38
2023/10/25 08:33:15;;;;;;;3.77;2.80;;;17.60;99.90;;;;;;5074665;28;20264;-38
2023/10/25 08:35:41;;;;;;;2.50;2.30;;;17.30;99.90;;;;;;5075076;28;20331;-38
2023/10/25 08:38:06;;;;;;;2.73;2.53;;;17.10;99.90;;;;;;5075317;28;20620;-39
2023/10/25 08:40:32;;;;;;;2.90;2.60;;;16.80;99.90;;;;;;5056729;28;20189;-38
2023/10/25 08:42:59;;;;;;;2.40;2.20;;;16.50;1.00;;;;;;5074658;28;20264;-38
2023/10/25 08:45:25;;;;;;;3.87;3.47;;;16.30;1.00;;;;;;5058144;28;20189;-38
2023/10/25 08:47:52;;;;;;;3.30;3.00;;;16.10;1.00;;;;;;5041766;28;20487;-37
2023/10/25 08:50:22;;;;;;;2.83;2.63;;;16.00;40.70;;;;;;5059015;28;20416;-39
2023/10/25 08:52:49;;;;;;;3.37;3.07;;;15.80;99.90;;;;;;5075332;28;20426;-39
2023/10/25 08:55:17;;;;;;;3.80;3.50;;;15.70;99.90;;;;;;5074225;28;20423;-38
2023/10/25 08:57:43;;;;;;;5.03;2.97;;;15.50;1.00;;;;;;5056426;28;20428;-40
2023/10/25 09:00:10;;;;;;;3.63;3.33;;;15.40;1.00;;;;;;5056840;28;20903;-37
2023/10/25 09:02:39;;;;;;;3.37;3.03;;;15.30;1.00;;;;;;5058745;28;20177;-38
2023/10/25 09:05:08;;;;;;;3.60;3.30;;;15.10;99.90;;;;;;5075769;28;20428;-39
2023/10/25 09:07:36;;;;;;;3.40;3.10;;;15.10;1.00;;;;;;5075148;28;20470;-38
2023/10/25 09:10:03;;;;;;;3.00;2.70;;;15.00;68.40;;;;;;5057364;28;20423;-39
2023/10/25 09:12:30;;;;;;;3.03;2.73;;;15.00;99.90;;;;;;5075883;28;20427;-40
2023/10/25 09:14:56;;;;;;;2.87;2.67;;;15.00;99.90;;;;;;5042536;28;20760;-40
2023/10/25 09:17:21;;;;;;;3.73;3.40;;;14.90;1.00;;;;;;5077122;28;20438;-37
2023/10/25 09:19:48;;;;;;;3.23;2.93;;;14.80;1.00;;;;;;5057033;28;20487;-38
2023/10/25 09:22:26;;;;;;;3.67;3.30;;;14.80;24.20;;;;;;5058574;28;20211;-38
2023/10/25 09:24:58;;;;;;;3.43;3.13;;;14.70;99.90;;;;;;5073380;28;20451;-38
2023/10/25 09:27:23;;;;;;;4.17;3.83;;;14.60;99.90;;;;;;5056487;28;20947;-38
2023/10/25 09:29:50;;;;;;;2.90;2.60;;;14.60;1.00;;;;;;5074196;28;20420;-38
2023/10/25 09:32:18;;;;;;;3.10;2.80;;;14.60;1.00;;;;;;5075345;28;20192;-37
2023/10/25 09:34:45;;;;;;;2.93;2.73;;;14.70;1.00;;;;;;5057392;28;20435;-39
2023/10/25 09:37:11;;;;;;;3.60;2.80;;;14.80;1.00;;;;;;5055283;28;20427;-40
2023/10/25 09:39:37;;;;;;;4.03;3.63;;;14.90;1.00;;;;;;5056201;28;20867;-40
2023/10/25 09:42:06;;;;;;;3.10;2.80;;;15.00;99.90;;;;;;5060010;28;20576;-39
2023/10/25 09:44:38;;;;;;;3.40;2.87;;;15.10;99.90;;;;;;5071292;28;20426;-40
2023/10/25 09:47:09;;;;;;;3.27;2.97;;;15.30;99.90;;;;;;5076874;28;20465;-39
2023/10/25 09:49:36;;;;;;;3.13;2.83;;;15.50;1.00;;;;;;5061500;28;20419;-37
2023/10/25 09:52:19;;;;;;;3.20;2.90;;;15.90;99.90;;;;;;5059180;28;20411;-39
2023/10/25 09:54:51;;;;;;;3.57;3.27;;;16.50;1.00;;;;;;5078510;28;20434;-40
2023/10/25 09:57:21;;;;;;;2.80;2.60;;;17.00;1.00;;;;;;5043304;28;20825;-39
2023/10/25 09:59:47;;;;;;;3.17;2.30;;;17.70;99.90;;;;;;5076466;28;20423;-39
2023/10/25 10:02:27;;;;;;;3.27;2.97;;;18.30;1.00;;;;;;5075303;28;20661;-37
2023/10/25 10:05:06;;;;;;;2.80;2.43;;;18.80;1.00;;;;;;5058931;28;20189;-40
2023/10/25 10:07:56;;;;;;;2.70;2.43;;;19.20;99.90;;;;;;5042330;28;20577;-39
2023/10/25 10:10:27;;;;;;;2.30;2.10;;;19.30;99.90;;;;;;5058702;28;20483;-38
2023/10/25 10:12:53;;;;;;;4.20;2.50;;;19.20;99.90;;;;;;5059103;28;20558;-39
2023/10/25 10:15:20;;;;;;;2.47;2.27;;;18.80;99.90;;;;;;5042055;28;20729;-38
2023/10/25 10:17:46;;;;;;;2.63;2.00;;;18.50;99.90;;;;;;5058628;28;20181;-41
2023/10/25 10:20:29;;;;;;;2.50;2.13;;;18.00;99.90;;;;;;5058983;28;20765;-39
2023/10/25 10:23:06;;;;;;;2.33;2.13;;;17.60;99.90;;;;;;5060461;28;20436;-38
2023/10/25 10:26:02;;;;;;;2.43;2.23;;;17.40;99.90;;;;;;5060388;28;20518;-40
2023/10/25 10:28:46;;;;;;;3.20;2.20;;;17.30;1.00;;;;;;5062560;28;20580;-40
2023/10/25 10:31:13;;;;;;;2.43;2.00;;;17.30;1.00;;;;;;5076436;28;20447;-39
2023/10/25 10:33:46;;;;;;;2.83;1.90;;;17.40;1.00;;;;;;5045472;28;20820;-38
2023/10/25 10:36:31;;;;;;;4.53;2.00;;;17.50;1.00;;;;;;5057553;28;20509;-38
2023/10/25 10:39:13;;;;;;;3.10;2.50;;;17.90;1.00;;;;;;5039035;28;20515;-39
2023/10/25 10:41:40;;;;;;;2.60;1.93;;;18.30;1.00;;;;;;5056126;28;20420;-38
2023/10/25 10:44:06;;;;;;;2.57;1.97;;;18.70;99.90;;;;;;5018389;28;20436;-41
2023/10/25 10:46:37;;;;;;;3.30;2.30;;;18.80;99.90;;;;;;5055298;28;20650;-39
2023/10/25 10:49:05;;;;;;;4.57;2.37;;;19.00;99.90;;;;;;5054036;28;20186;-41
2023/10/25 10:51:31;;;;;;;6.40;2.10;;;19.50;99.90;;;;;;5051061;28;20490;-43
2023/10/25 10:53:57;;;;;;;9.30;2.20;;;19.70;99.90;;;;;;5055552;28;20408;-37
2023/10/25 10:56:22;;;;;;;3.37;1.63;;;19.80;99.90;;;;;;5051912;28;20689;-40
2023/10/25 10:58:48;;;;;;;2.90;1.53;;;19.60;1.00;;;;;;5038301;28;20182;-51
2023/10/25 11:01:14;;;;;;;4.00;1.67;;;19.30;99.90;;;;;;5053022;28;20181;-41
2023/10/25 11:03:40;;;;;;;3.23;1.80;;;19.00;99.90;;;;;;5053281;28;20242;-47
2023/10/25 11:06:06;;;;;;;1.90;1.37;;;18.80;99.90;;;;;;5055083;28;20260;-38
2023/10/25 11:08:32;;;;;;;1.70;1.53;;;18.70;99.90;;;;;;5033045;28;20515;-38
2023/10/25 11:10:58;;;;;;;1.93;1.27;;;18.50;99.90;;;;;;5051915;28;20251;-39
2023/10/25 11:13:24;;;;;;;3.17;1.17;;;18.50;99.90;;;;;;5053828;28;20423;-39
2023/10/25 11:16:03;;;;;;;2.90;1.17;;;18.70;1.00;;;;;;5052912;28;20422;-40
2023/10/25 11:18:29;;;;;;;1.93;1.30;;;19.00;99.90;;;;;;5035467;28;20436;-39
2023/10/25 11:20:54;;;;;;;3.87;1.17;;;19.60;99.90;;;;;;5037308;28;20443;-38
2023/10/25 11:23:20;;;;;;;3.17;1.30;;;20.60;99.90;;;;;;5053799;28;20208;-38
2023/10/25 11:25:46;;;;;;;2.53;1.60;;;21.90;99.90;;;;;;5052804;28;20189;-39
2023/10/25 11:28:11;;;;;;;2.13;1.13;;;23.60;1.00;;;;;;5051948;28;20647;-38
2023/10/25 11:30:38;;;;;;;1.40;1.00;;;24.40;1.00;;;;;;5054070;28;20355;-39
2023/10/25 11:33:04;;;;;;;2.00;1.40;;;25.00;1.00;;;;;;5034057;28;20445;-37
2023/10/25 11:35:30;;;;;;;2.20;1.60;;;24.90;1.00;;;;;;5052309;28;20458;-40
2023/10/25 11:37:56;;;;;;;1.50;1.13;;;24.80;1.00;;;;;;5054008;28;20476;-50
2023/10/25 11:40:34;;;;;;;3.10;1.30;;;24.80;1.00;;;;;;5051393;28;20192;-37
2023/10/25 11:43:00;;;;;;;2.37;1.27;;;25.30;1.00;;;;;;5051710;28;20444;-38
2023/10/25 11:45:26;;;;;;;1.40;1.00;;;27.00;1.00;;;;;;5053715;28;20467;-38
2023/10/25 11:47:54;;;;;;;1.40;1.00;;;29.00;1.00;;;;;;5052959;28;20519;-39
2023/10/25 11:50:20;;;;;;;1.70;1.00;;;30.70;1.00;;;;;;5052924;28;20180;-40
2023/10/25 11:52:45;;;;;;;1.50;1.00;;;31.70;1.00;;;;;;5052794;28;20424;-40
2023/10/25 11:55:11;;;;;;;1.60;1.10;;;31.30;1.00;;;;;;5052145;28;20379;-42
2023/10/25 11:57:39;;;;;;;1.77;1.43;;;30.30;1.00;;;;;;5053086;28;20265;-38
2023/10/25 12:00:08;;;;;;;2.03;1.10;;;28.90;1.00;;;;;;5032177;28;20174;-37
2023/10/25 12:02:34;;;;;;;2.17;1.30;;;27.50;1.00;;;;;;5032472;28;20429;-38
2023/10/25 12:05:01;;;;;;;1.50;0.90;;;26.20;1.00;;;;;;5032163;28;20401;-40
2023/10/25 12:07:27;;;;;;;1.47;1.10;;;25.30;1.00;;;;;;5051765;28;20457;-39
2023/10/25 12:09:53;;;;;;;1.70;1.10;;;24.70;1.00;;;;;;5054259;28;20599;-38
2023/10/25 12:12:20;;;;;;;1.63;1.33;;;24.20;1.00;;;;;;5053447;28;20420;-38
2023/10/25 12:14:45;;;;;;;3.10;1.40;;;23.90;1.00;;;;;;5055662;28;20523;-39
2023/10/25 12:17:12;;;;;;;1.80;1.10;;;23.80;1.00;;;;;;5054508;28;20527;-38
2023/10/25 12:19:41;;;;;;;1.33;0.90;;;23.80;1.00;;;;;;5053705;28;20225;-40
2023/10/25 12:22:09;;;;;;;1.30;0.97;;;23.40;1.00;;;;;;5054422;28;20408;-47
2023/10/25 12:24:35;;;;;;;1.43;0.90;;;23.10;1.00;;;;;;5034783;28;20443;-38
2023/10/25 12:27:01;;;;;;;1.90;1.10;;;22.80;1.00;;;;;;5043440;28;20979;-38
2023/10/25 12:29:27;;;;;;;1.80;1.10;;;22.90;1.00;;;;;;5074792;28;20598;-39
2023/10/25 12:31:53;;;;;;;1.90;1.10;;;23.10;1.00;;;;;;5074095;28;20522;-41
2023/10/25 12:34:19;;;;;;;1.20;0.90;;;23.20;1.00;;;;;;5072399;28;20486;-40
2023/10/25 12:36:45;;;;;;;2.23;0.87;;;23.00;1.00;;;;;;5071984;28;20424;-40
2023/10/25 12:39:10;;;;;;;2.13;1.33;;;22.50;1.00;;;;;;5073265;28;20181;-37
2023/10/25 12:41:36;;;;;;;1.73;1.10;;;22.00;1.00;;;;;;5071490;28;20370;-38
2023/10/25 12:44:08;;;;;;;1.13;0.70;;;21.50;1.00;;;;;;5071176;28;20288;-38
2023/10/25 12:46:36;;;;;;;5.00;0.93;;;21.10;1.00;;;;;;5070437;28;20215;-41
2023/10/25 12:49:03;;;;;;;2.10;0.90;;;20.80;1.00;;;;;;5071725;28;20441;-38